Squirrel Hill, Pennsylvania
Current Conditions -  °F | °C
As of 4:53 PM on Sunday 21 Dec 2014 (Local Time) from KAGC Reporting Station
Clear Clear  
Wind Chill: 32°   Ceiling: Unl
Heat Index: 32°   Visibility: 9mi
Dew Point: 19°   Wind: 3mph
Humidity: 59%   Direction: 70°ENE
Pressure: 30.22"   Gusts: NA
Location:  40.4306°N, 79.9221°W
Report Text: KAGC 212153Z 07003KT 9SM CLR 00/M07 A3022 RMK AO2 SLP254 T00001072
Loading
Personal Weather Stations






























Interactive Weather Map New forecast layout! Learn more

10-Day Weather Forecast

Advertisements
Track Severe Weather on mobile